Time;durP1;ratioP1;P1;durP2;ratioP2;P2;SDS_P1;SDS_P2;PMS_P1;PMS_P2;Temp;Humidity;BMP_temperature;BMP_pressure;BME280_temperature;BME280_humidity;BME280_pressure;Samples;Min_cycle;Max_cycle;Signal;HPM_P1;HPM_P2
2021/04/03 00:02:09;;;;;;;26.15;5.60;;;5.40;99.90;;;;;;5125150;27;20035;-77
2021/04/03 00:04:35;;;;;;;27.75;7.72;;;5.40;99.90;;;;;;5144477;27;20034;-76
2021/04/03 00:07:01;;;;;;;23.17;5.72;;;5.30;99.90;;;;;;5100134;28;20140;-77
2021/04/03 00:09:27;;;;;;;25.38;6.40;;;5.40;99.90;;;;;;5127211;28;20043;-78
2021/04/03 00:11:52;;;;;;;25.83;7.40;;;5.30;99.90;;;;;;5137579;27;20039;-76
2021/04/03 00:14:18;;;;;;;18.73;6.30;;;5.60;99.90;;;;;;5135152;27;20443;-76
2021/04/03 00:16:44;;;;;;;26.15;5.90;;;5.30;99.90;;;;;;5134574;27;20027;-75
2021/04/03 00:19:10;;;;;;;14.30;5.35;;;5.60;99.90;;;;;;5116848;27;20400;-75
2021/04/03 00:21:36;;;;;;;25.55;6.43;;;5.20;99.90;;;;;;5134847;27;20031;-75
2021/04/03 00:24:02;;;;;;;22.77;6.85;;;5.20;99.90;;;;;;5117335;27;20043;-75
2021/04/03 00:26:28;;;;;;;24.38;6.53;;;5.20;99.90;;;;;;5147875;27;20447;-75
2021/04/03 00:28:54;;;;;;;25.83;6.72;;;5.20;99.90;;;;;;5150505;27;20039;-75
2021/04/03 00:31:20;;;;;;;19.38;6.32;;;5.10;99.90;;;;;;5134136;27;20374;-76
2021/04/03 00:33:46;;;;;;;28.70;6.45;;;5.10;99.90;;;;;;5154999;27;20035;-76
2021/04/03 00:36:12;;;;;;;26.77;7.78;;;5.10;99.90;;;;;;5123911;27;20092;-76
2021/04/03 00:38:38;;;;;;;22.73;6.18;;;5.10;99.90;;;;;;5130351;27;20035;-76
2021/04/03 00:41:04;;;;;;;24.58;6.25;;;5.20;99.90;;;;;;5091704;28;20038;-75
2021/04/03 00:43:31;;;;;;;21.80;6.50;;;5.20;99.90;;;;;;5143193;27;20049;-74
2021/04/03 00:45:57;;;;;;;26.40;7.07;;;5.20;99.90;;;;;;5112302;27;20031;-76
2021/04/03 00:48:23;;;;;;;26.45;6.18;;;5.10;99.90;;;;;;5134703;27;20487;-75
2021/04/03 00:50:52;;;;;;;30.52;8.70;;;5.20;99.90;;;;;;5106585;27;20043;-78
2021/04/03 00:53:24;;;;;;;30.60;7.40;;;5.10;99.90;;;;;;5134873;27;20084;-77
2021/04/03 00:55:51;;;;;;;27.70;7.50;;;5.10;99.90;;;;;;5135693;27;20430;-79
2021/04/03 00:58:17;;;;;;;24.10;7.72;;;5.00;99.90;;;;;;5081897;28;20043;-77
2021/04/03 01:00:48;;;;;;;31.35;7.03;;;5.00;99.90;;;;;;5142959;27;20066;-77
2021/04/03 01:03:15;;;;;;;31.30;7.78;;;4.90;99.90;;;;;;5103507;27;20637;-75
2021/04/03 01:05:41;;;;;;;29.85;7.35;;;4.90;99.90;;;;;;5134934;27;20149;-75
2021/04/03 01:08:07;;;;;;;30.83;7.88;;;4.90;99.90;;;;;;5109615;27;20054;-76
2021/04/03 01:10:48;;;;;;;19.75;7.15;;;4.80;99.90;;;;;;5130475;27;20045;-77
2021/04/03 01:13:35;;;;;;;35.72;8.73;;;4.80;99.90;;;;;;5128626;27;20142;-77
2021/04/03 01:16:04;;;;;;;;;;;4.90;99.90;;;;;;5134119;27;20166;-77
2021/04/03 01:18:48;;;;;;;31.15;9.10;;;4.90;99.90;;;;;;5112273;27;19947;-75
2021/04/03 01:21:25;;;;;;;26.50;6.93;;;4.90;99.90;;;;;;5125199;27;20041;-75
2021/04/03 01:24:00;;;;;;;;;;;4.80;99.90;;;;;;5112017;27;20094;-75
2021/04/03 01:26:53;;;;;;;26.38;7.82;;;4.80;99.90;;;;;;5112199;27;20137;-75
2021/04/03 01:29:28;;;;;;;34.67;8.48;;;4.80;99.90;;;;;;5106483;28;20208;-76
2021/04/03 01:31:57;;;;;;;22.23;7.15;;;4.80;99.90;;;;;;5117428;27;20505;-75
2021/04/03 01:34:26;;;;;;;25.70;8.25;;;4.70;99.90;;;;;;5112908;27;20055;-77
2021/04/03 01:36:58;;;;;;;29.75;7.28;;;4.60;99.90;;;;;;5104305;28;20028;-75
2021/04/03 01:39:27;;;;;;;42.53;8.20;;;4.50;99.90;;;;;;5104930;28;20044;-74
2021/04/03 01:41:57;;;;;;;26.35;7.57;;;4.50;99.90;;;;;;5104222;27;20043;-75
2021/04/03 01:44:30;;;;;;;36.90;8.48;;;4.40;99.90;;;;;;5105727;28;20034;-75
2021/04/03 01:46:58;;;;;;;40.75;8.45;;;4.30;99.90;;;;;;5106982;28;20035;-74
2021/04/03 01:49:25;;;;;;;32.33;7.95;;;4.20;99.90;;;;;;5078898;27;20100;-74
2021/04/03 01:51:52;;;;;;;29.30;8.55;;;4.20;99.90;;;;;;5110043;27;20047;-77
2021/04/03 01:54:21;;;;;;;21.85;7.85;;;4.20;99.90;;;;;;5112218;27;20043;-75
2021/04/03 01:56:50;;;;;;;33.33;7.93;;;4.10;99.90;;;;;;5118125;27;20275;-77
2021/04/03 01:59:17;;;;;;;30.35;9.00;;;4.10;99.90;;;;;;5109686;27;20093;-75
2021/04/03 02:01:45;;;;;;;25.67;8.07;;;4.00;99.90;;;;;;5103144;28;20399;-76
2021/04/03 02:04:16;;;;;;;29.88;7.55;;;4.00;99.90;;;;;;5103463;27;20062;-75
2021/04/03 02:06:46;;;;;;;32.92;8.25;;;3.90;99.90;;;;;;5099989;28;20036;-75
2021/04/03 02:09:14;;;;;;;39.75;8.95;;;3.90;99.90;;;;;;5120035;27;20035;-75
2021/04/03 02:11:44;;;;;;;38.15;8.48;;;3.80;99.90;;;;;;5109645;28;20446;-75
2021/04/03 02:14:11;;;;;;;34.85;7.88;;;3.70;99.90;;;;;;5111128;28;20036;-75
2021/04/03 02:16:38;;;;;;;33.45;9.35;;;3.70;99.90;;;;;;5095563;28;20032;-76
2021/04/03 02:19:09;;;;;;;31.70;8.02;;;3.60;99.90;;;;;;5111746;28;20036;-75
2021/04/03 02:21:37;;;;;;;30.67;9.20;;;4.20;99.90;;;;;;5113681;27;20031;-75
2021/04/03 02:24:04;;;;;;;39.53;9.52;;;3.60;99.90;;;;;;5117201;27;20052;-75
2021/04/03 02:26:35;;;;;;;32.90;8.57;;;3.60;99.90;;;;;;5131239;27;20367;-74
2021/04/03 02:29:05;;;;;;;39.45;8.55;;;3.80;99.90;;;;;;5110183;28;20070;-75
2021/04/03 02:31:33;;;;;;;39.28;9.98;;;3.50;99.90;;;;;;5107687;27;20384;-75
2021/04/03 02:33:59;;;;;;;32.58;8.88;;;3.50;99.90;;;;;;5115371;27;20479;-76
2021/04/03 02:36:24;;;;;;;39.30;9.77;;;3.50;99.90;;;;;;5126769;27;20065;-74
2021/04/03 02:38:51;;;;;;;37.67;9.15;;;3.40;99.90;;;;;;5127354;27;20118;-76
2021/04/03 02:41:22;;;;;;;43.58;8.93;;;3.40;99.90;;;;;;5108391;27;20092;-74
2021/04/03 02:43:54;;;;;;;33.40;8.65;;;3.30;99.90;;;;;;5132092;27;20055;-76
2021/04/03 02:46:35;;;;;;;32.60;8.88;;;3.30;99.90;;;;;;5128639;27;20035;-75
2021/04/03 02:49:06;;;;;;;28.83;8.93;;;3.30;99.90;;;;;;5107170;27;20094;-75
2021/04/03 02:51:47;;;;;;;31.17;8.27;;;3.30;99.90;;;;;;5127583;27;20031;-76
2021/04/03 02:54:15;;;;;;;27.80;7.72;;;3.30;99.90;;;;;;5108540;27;20041;-75
2021/04/03 02:56:43;;;;;;;30.73;8.60;;;2.80;99.90;;;;;;5110328;27;20031;-76
2021/04/03 02:59:20;;;;;;;42.15;10.40;;;3.30;99.90;;;;;;5135471;27;20027;-73
2021/04/03 03:01:49;;;;;;;30.83;9.60;;;3.30;99.90;;;;;;5131226;27;20081;-75
2021/04/03 03:04:19;;;;;;;38.88;9.45;;;3.30;99.90;;;;;;5114211;27;20035;-76
2021/04/03 03:06:46;;;;;;;39.78;9.43;;;3.30;99.90;;;;;;5137366;27;20065;-77
2021/04/03 03:09:17;;;;;;;40.97;9.43;;;3.40;99.90;;;;;;5132918;27;20379;-76
2021/04/03 03:11:51;;;;;;;40.95;9.45;;;3.40;99.90;;;;;;5113369;27;20031;-74
2021/04/03 03:14:17;;;;;;;30.60;8.75;;;3.30;99.90;;;;;;5131902;27;20492;-75
2021/04/03 03:16:45;;;;;;;39.13;10.38;;;3.40;99.90;;;;;;5132290;27;20490;-75
2021/04/03 03:19:13;;;;;;;30.13;9.15;;;3.40;99.90;;;;;;5139471;27;20050;-75
2021/04/03 03:21:40;;;;;;;32.88;9.82;;;3.70;99.90;;;;;;5118273;27;20036;-76
2021/04/03 03:24:07;;;;;;;36.55;9.07;;;3.50;99.90;;;;;;5115068;27;20122;-75
2021/04/03 03:26:35;;;;;;;42.35;9.98;;;3.50;99.90;;;;;;5105854;27;20406;-75
2021/04/03 03:29:07;;;;;;;47.45;10.30;;;3.50;99.90;;;;;;5126744;27;20035;-75
2021/04/03 03:31:33;;;;;;;37.55;9.07;;;3.50;99.90;;;;;;5133175;27;20031;-75
2021/04/03 03:34:00;;;;;;;39.10;8.55;;;3.50;99.90;;;;;;5135020;27;20118;-76
2021/04/03 03:36:30;;;;;;;32.50;8.48;;;3.50;99.90;;;;;;5128130;27;20067;-74
2021/04/03 03:38:56;;;;;;;42.13;10.52;;;3.50;99.90;;;;;;5116493;27;20074;-76
2021/04/03 03:41:24;;;;;;;32.38;9.63;;;3.50;99.90;;;;;;5122861;28;20039;-75
2021/04/03 03:43:51;;;;;;;33.05;9.35;;;3.50;99.90;;;;;;5099387;28;20042;-75
2021/04/03 03:46:17;;;;;;;37.00;9.38;;;3.60;99.90;;;;;;5111113;28;20043;-75
2021/04/03 03:48:43;;;;;;;40.03;9.68;;;3.60;99.90;;;;;;5125542;27;20050;-74
2021/04/03 03:51:09;;;;;;;38.58;9.65;;;3.60;99.90;;;;;;5123111;27;20104;-75
2021/04/03 03:53:34;;;;;;;33.15;9.25;;;3.70;99.90;;;;;;5134993;27;20041;-75
2021/04/03 03:56:00;;;;;;;30.83;9.15;;;3.70;99.90;;;;;;5128707;27;20035;-74
2021/04/03 03:58:26;;;;;;;42.60;9.32;;;3.80;99.90;;;;;;5115874;27;20122;-76
2021/04/03 04:00:52;;;;;;;31.85;8.52;;;5.10;99.90;;;;;;5117277;27;20035;-76
2021/04/03 04:03:18;;;;;;;36.67;9.38;;;3.90;99.90;;;;;;5117165;27;20114;-75
2021/04/03 04:05:44;;;;;;;41.72;9.55;;;3.90;99.90;;;;;;5113946;27;20543;-75
2021/04/03 04:08:10;;;;;;;43.53;9.23;;;3.90;99.90;;;;;;5124341;27;20104;-74
2021/04/03 04:10:36;;;;;;;47.65;10.40;;;3.90;99.90;;;;;;5132682;27;20035;-75
2021/04/03 04:13:03;;;;;;;30.17;9.65;;;3.90;99.90;;;;;;5115703;27;20039;-76
2021/04/03 04:15:29;;;;;;;35.00;8.98;;;3.90;99.90;;;;;;5139516;27;20753;-76
2021/04/03 04:17:54;;;;;;;38.92;9.45;;;3.90;99.90;;;;;;5116252;27;20058;-75
2021/04/03 04:20:21;;;;;;;37.97;10.85;;;3.90;99.90;;;;;;5127100;27;20039;-76
2021/04/03 04:22:47;;;;;;;35.08;9.45;;;3.90;99.90;;;;;;5127522;27;20049;-76
2021/04/03 04:25:13;;;;;;;34.72;8.65;;;3.90;99.90;;;;;;5134707;27;20104;-76
2021/04/03 04:27:39;;;;;;;30.95;8.85;;;3.80;99.90;;;;;;5151044;27;20122;-75
2021/04/03 04:30:09;;;;;;;32.15;9.18;;;3.80;99.90;;;;;;5118161;27;20049;-75
2021/04/03 04:32:39;;;;;;;37.75;8.60;;;3.70;99.90;;;;;;5115835;27;20126;-75
2021/04/03 04:35:07;;;;;;;29.40;8.93;;;3.70;99.90;;;;;;5128120;27;20042;-75
2021/04/03 04:37:33;;;;;;;29.88;7.70;;;3.70;99.90;;;;;;5129053;27;20038;-75
2021/04/03 04:39:59;;;;;;;37.75;9.18;;;3.70;99.90;;;;;;5127650;27;20092;-75
2021/04/03 04:42:25;;;;;;;34.55;9.35;;;3.70;99.90;;;;;;5125157;27;20508;-75
2021/04/03 04:44:51;;;;;;;37.22;10.10;;;3.70;99.90;;;;;;5118777;27;20034;-75
2021/04/03 04:47:18;;;;;;;30.80;7.88;;;3.80;99.90;;;;;;5116232;27;20031;-74
2021/04/03 04:49:44;;;;;;;30.92;8.77;;;3.60;99.90;;;;;;5144967;27;20121;-76
2021/04/03 04:52:10;;;;;;;35.42;8.68;;;3.60;99.90;;;;;;5124926;27;20713;-75
2021/04/03 04:54:35;;;;;;;36.25;9.18;;;3.60;99.90;;;;;;5138053;27;20111;-75
2021/04/03 04:57:01;;;;;;;31.40;8.80;;;3.60;99.90;;;;;;5145146;27;20038;-75
2021/04/03 04:59:27;;;;;;;34.55;8.38;;;3.60;99.90;;;;;;5114776;27;20063;-75
2021/04/03 05:01:53;;;;;;;29.75;9.35;;;3.60;99.90;;;;;;5122939;27;20084;-75
2021/04/03 05:04:20;;;;;;;37.90;9.70;;;3.60;99.90;;;;;;5115749;27;20035;-75
2021/04/03 05:06:46;;;;;;;38.00;9.00;;;3.60;99.90;;;;;;5126846;27;20467;-76
2021/04/03 05:09:12;;;;;;;34.70;8.40;;;3.60;99.90;;;;;;5121249;27;20115;-74
2021/04/03 05:11:38;;;;;;;29.13;8.75;;;3.70;99.90;;;;;;5123734;27;20110;-75
2021/04/03 05:14:04;;;;;;;;;;;3.70;99.90;;;;;;5135168;27;20065;-75
2021/04/03 05:16:30;;;;;;;27.88;8.25;;;3.70;99.90;;;;;;5109908;27;20371;-74
2021/04/03 05:18:56;;;;;;;36.63;9.23;;;3.70;99.90;;;;;;5115411;27;20035;-76
2021/04/03 05:21:22;;;;;;;32.65;8.98;;;3.70;99.90;;;;;;5093707;28;20059;-75
2021/04/03 05:23:47;;;;;;;30.58;8.48;;;3.70;99.90;;;;;;5129965;27;20038;-75
2021/04/03 05:26:13;;;;;;;35.33;10.27;;;3.70;99.90;;;;;;5114874;27;20433;-75
2021/04/03 05:28:39;;;;;;;40.95;9.52;;;3.70;99.90;;;;;;5110617;27;20111;-75
2021/04/03 05:31:05;;;;;;;40.45;9.45;;;3.70;99.90;;;;;;5095237;28;20031;-75
2021/04/03 05:33:31;;;;;;;31.83;8.80;;;3.80;99.90;;;;;;5146209;27;20159;-75
2021/04/03 05:35:57;;;;;;;31.13;8.70;;;3.80;99.90;;;;;;5115658;27;20449;-76
2021/04/03 05:38:23;;;;;;;40.70;8.90;;;3.80;99.90;;;;;;5115391;27;20027;-76
2021/04/03 05:40:48;;;;;;;40.03;10.63;;;4.00;99.90;;;;;;5113988;27;20055;-75
2021/04/03 05:43:15;;;;;;;35.95;8.43;;;3.90;99.90;;;;;;5133221;27;20087;-75
2021/04/03 05:45:43;;;;;;;34.85;8.63;;;4.00;99.90;;;;;;5133129;27;20039;-77
2021/04/03 05:48:10;;;;;;;33.83;8.43;;;4.00;99.90;;;;;;5120832;27;20035;-76
2021/04/03 05:50:37;;;;;;;36.85;9.18;;;4.10;99.90;;;;;;5126407;27;20043;-76
2021/04/03 05:53:03;;;;;;;37.63;8.70;;;4.10;99.90;;;;;;5130346;27;20107;-76
2021/04/03 05:55:30;;;;;;;32.45;8.70;;;4.20;99.90;;;;;;5130950;27;20035;-75
2021/04/03 05:57:55;;;;;;;;;;;4.20;99.90;;;;;;5138597;27;20671;-75
2021/04/03 06:00:22;;;;;;;27.88;8.50;;;4.20;99.90;;;;;;5133201;27;20037;-75
2021/04/03 06:02:48;;;;;;;39.38;8.00;;;4.30;99.90;;;;;;5119696;27;20050;-75
2021/04/03 06:05:15;;;;;;;31.05;8.23;;;4.30;99.90;;;;;;5135142;27;20118;-75
2021/04/03 06:07:41;;;;;;;27.52;8.18;;;4.40;99.90;;;;;;5135089;27;20106;-75
2021/04/03 06:10:09;;;;;;;34.50;8.18;;;4.60;99.90;;;;;;5127771;27;20548;-74
2021/04/03 06:12:47;;;;;;;33.80;8.65;;;4.40;99.90;;;;;;5144387;27;20054;-74
2021/04/03 06:15:26;;;;;;;37.28;8.77;;;4.40;99.90;;;;;;5147695;27;20123;-74
2021/04/03 06:17:56;;;;;;;26.30;7.97;;;4.50;99.90;;;;;;5126796;27;20039;-75
2021/04/03 06:20:36;;;;;;;39.08;10.00;;;4.50;99.90;;;;;;5100786;27;20043;-75
2021/04/03 06:23:05;;;;;;;24.25;7.90;;;4.50;99.90;;;;;;5134494;27;20131;-77
2021/04/03 06:25:31;;;;;;;31.65;8.13;;;4.60;99.90;;;;;;5099759;27;20133;-75
2021/04/03 06:28:07;;;;;;;32.85;9.40;;;4.60;99.90;;;;;;5128876;27;20035;-74
2021/04/03 06:30:37;;;;;;;33.75;8.45;;;4.80;99.90;;;;;;5122631;27;20057;-75
2021/04/03 06:33:20;;;;;;;30.20;8.18;;;4.90;99.90;;;;;;5127525;27;20514;-76
2021/04/03 06:36:13;;;;;;;28.77;9.02;;;5.00;99.90;;;;;;5130710;27;20114;-75
2021/04/03 06:38:40;;;;;;;28.08;8.98;;;5.10;99.90;;;;;;5126397;27;20042;-75
2021/04/03 06:41:20;;;;;;;29.80;8.10;;;5.20;99.90;;;;;;5125805;27;20036;-75
2021/04/03 06:44:10;;;;;;;33.38;7.70;;;5.40;99.90;;;;;;5112709;27;20035;-76
2021/04/03 06:46:37;;;;;;;28.52;8.25;;;5.50;99.90;;;;;;5115341;27;20047;-77
2021/04/03 06:49:04;;;;;;;29.98;8.35;;;5.60;99.90;;;;;;5127423;27;20031;-76
2021/04/03 06:51:31;;;;;;;30.73;9.43;;;5.70;99.90;;;;;;5129323;27;20038;-75
2021/04/03 06:53:58;;;;;;;28.80;8.60;;;5.80;99.90;;;;;;5110376;27;20047;-77
2021/04/03 06:56:27;;;;;;;35.75;9.02;;;5.80;99.90;;;;;;5112920;27;20054;-75
2021/04/03 06:59:11;;;;;;;36.60;8.32;;;6.00;99.90;;;;;;5134299;27;20035;-75
2021/04/03 07:01:40;;;;;;;33.90;9.02;;;6.00;99.90;;;;;;5124867;27;20062;-75
2021/04/03 07:04:10;;;;;;;29.60;7.97;;;6.20;99.90;;;;;;5127794;27;20042;-76
2021/04/03 07:06:37;;;;;;;32.03;8.73;;;6.30;99.90;;;;;;5130349;27;20049;-75
2021/04/03 07:09:08;;;;;;;32.90;8.43;;;6.40;99.90;;;;;;5131189;27;20046;-76
2021/04/03 07:11:35;;;;;;;30.67;9.20;;;6.40;99.90;;;;;;5113613;27;20040;-79
2021/04/03 07:14:01;;;;;;;40.75;8.50;;;6.50;99.90;;;;;;5128717;27;20035;-76
2021/04/03 07:16:28;;;;;;;37.72;8.75;;;6.60;99.90;;;;;;5112809;27;20115;-77
2021/04/03 07:18:59;;;;;;;37.42;8.30;;;6.70;99.90;;;;;;5149273;27;20510;-77
2021/04/03 07:21:24;;;;;;;31.42;8.43;;;6.80;99.90;;;;;;5136778;27;20058;-75
2021/04/03 07:23:51;;;;;;;24.40;8.43;;;7.00;99.90;;;;;;5128682;27;20043;-76
2021/04/03 07:26:18;;;;;;;23.65;7.82;;;7.10;99.90;;;;;;5122628;27;20384;-77
2021/04/03 07:28:44;;;;;;;25.48;7.57;;;7.10;99.90;;;;;;5115086;27;20046;-77
2021/04/03 07:31:41;;;;;;;30.80;8.68;;;7.20;99.90;;;;;;5114110;27;20066;-79
2021/04/03 07:34:09;;;;;;;17.98;6.82;;;7.20;99.90;;;;;;5128953;27;20383;-77
2021/04/03 07:36:40;;;;;;;32.15;7.50;;;7.40;99.90;;;;;;5109786;28;20039;-79
2021/04/03 07:39:37;;;;;;;20.17;7.05;;;7.20;99.90;;;;;;5095330;28;20035;-77
2021/04/03 07:42:04;;;;;;;22.98;7.35;;;7.10;99.90;;;;;;5138080;27;20057;-78
2021/04/03 07:44:34;;;;;;;24.77;7.22;;;7.10;99.90;;;;;;5129077;28;20402;-79
2021/04/03 07:47:22;;;;;;;19.77;6.88;;;7.10;99.90;;;;;;5121826;28;20055;-76
2021/04/03 07:49:48;;;;;;;23.23;6.60;;;7.00;99.90;;;;;;5130399;28;20043;-77
2021/04/03 07:52:14;;;;;;;29.27;7.18;;;7.10;99.90;;;;;;5096441;28;20042;-77
2021/04/03 07:54:40;;;;;;;30.30;7.97;;;7.20;99.90;;;;;;5110372;28;20035;-77
2021/04/03 07:57:10;;;;;;;25.17;6.30;;;7.40;99.90;;;;;;5126803;28;20038;-77
2021/04/03 08:00:02;;;;;;;28.25;7.15;;;7.50;99.90;;;;;;5133021;27;20031;-77
2021/04/03 08:02:29;;;;;;;29.65;7.38;;;7.80;99.90;;;;;;5131012;27;20039;-76
2021/04/03 08:04:56;;;;;;;27.45;7.60;;;8.10;99.90;;;;;;5111496;28;20035;-79
2021/04/03 08:07:23;;;;;;;21.38;7.50;;;8.20;99.90;;;;;;5127281;27;20035;-77
2021/04/03 08:09:49;;;;;;;19.35;6.18;;;8.30;99.90;;;;;;5112133;28;20035;-77
2021/04/03 08:12:15;;;;;;;26.08;7.03;;;8.20;99.90;;;;;;5138347;27;20035;-76
2021/04/03 08:14:41;;;;;;;;;;;8.20;99.90;;;;;;5140947;27;20038;-77
2021/04/03 08:17:09;;;;;;;30.98;8.43;;;8.00;99.90;;;;;;5133809;27;19969;-76
2021/04/03 08:19:38;;;;;;;28.48;7.60;;;7.90;99.90;;;;;;5128183;28;20122;-76
2021/04/03 08:22:08;;;;;;;26.23;6.60;;;8.00;99.90;;;;;;5124603;28;20757;-75
2021/04/03 08:24:34;;;;;;;22.08;6.05;;;8.00;99.90;;;;;;5112391;28;20416;-76
2021/04/03 08:27:00;;;;;;;32.90;8.32;;;8.10;99.90;;;;;;5118229;28;20077;-76
2021/04/03 08:29:36;;;;;;;28.27;8.27;;;8.20;99.90;;;;;;5107381;27;20063;-77
2021/04/03 08:32:03;;;;;;;20.02;6.85;;;8.30;99.90;;;;;;5104754;28;20042;-77
2021/04/03 08:34:30;;;;;;;22.73;6.53;;;8.30;99.90;;;;;;5119512;27;20457;-77
2021/04/03 08:36:56;;;;;;;;;;;8.30;99.90;;;;;;5097188;28;20546;-76
2021/04/03 08:39:24;;;;;;;22.42;7.32;;;8.20;99.90;;;;;;5141989;27;19951;-77
2021/04/03 08:41:53;;;;;;;24.23;7.93;;;8.20;99.90;;;;;;5138190;27;20169;-77
2021/04/03 08:44:30;;;;;;;23.30;6.97;;;8.20;99.90;;;;;;5139382;27;20065;-77
2021/04/03 08:47:18;;;;;;;23.40;6.70;;;8.10;99.90;;;;;;5099220;28;20061;-76
2021/04/03 08:49:43;;;;;;;21.55;6.20;;;8.20;99.90;;;;;;5114967;28;20333;-76
2021/04/03 08:52:10;;;;;;;23.00;6.10;;;8.30;99.90;;;;;;5129639;27;20039;-76
2021/04/03 08:54:41;;;;;;;18.40;6.82;;;8.30;99.90;;;;;;5137824;27;20079;-77
2021/04/03 08:57:19;;;;;;;19.75;6.60;;;8.40;99.90;;;;;;5151330;27;20046;-77
2021/04/03 08:59:45;;;;;;;30.13;6.35;;;8.30;99.90;;;;;;5126049;27;20114;-78
2021/04/03 09:02:11;;;;;;;28.40;7.10;;;8.40;99.90;;;;;;5126306;27;20047;-77
2021/04/03 09:04:37;;;;;;;18.75;6.50;;;8.50;99.90;;;;;;5135283;27;20391;-76
2021/04/03 09:07:03;;;;;;;23.10;6.47;;;8.50;99.90;;;;;;5115367;27;20497;-77
2021/04/03 09:09:31;;;;;;;25.38;6.18;;;8.50;99.90;;;;;;5115864;27;20048;-77
2021/04/03 09:11:59;;;;;;;16.23;5.05;;;8.40;99.90;;;;;;5092392;27;20045;-79
2021/04/03 09:14:35;;;;;;;21.27;5.97;;;8.40;99.90;;;;;;5145647;27;20471;-77
2021/04/03 09:17:05;;;;;;;25.52;6.57;;;8.40;99.90;;;;;;5116336;27;20145;-77
2021/04/03 09:19:35;;;;;;;19.00;6.32;;;8.40;99.90;;;;;;5129418;27;20028;-77
2021/04/03 09:22:02;;;;;;;20.30;6.03;;;8.50;99.90;;;;;;5144115;27;20059;-76
2021/04/03 09:24:43;;;;;;;25.35;7.18;;;8.60;99.90;;;;;;5116216;27;20126;-77
2021/04/03 09:27:20;;;;;;;21.35;6.45;;;8.60;99.90;;;;;;5097949;27;20724;-77
2021/04/03 09:29:48;;;;;;;20.70;5.20;;;8.50;99.90;;;;;;5127324;27;20106;-76
2021/04/03 09:32:16;;;;;;;23.42;6.68;;;8.50;99.90;;;;;;5121017;27;20039;-77
2021/04/03 09:34:42;;;;;;;17.73;6.32;;;8.60;99.90;;;;;;5129300;27;20061;-76
2021/04/03 09:37:14;;;;;;;;;;;8.70;99.80;;;;;;5124798;27;20114;-77
2021/04/03 09:39:48;;;;;;;20.42;5.43;;;8.80;99.40;;;;;;5128732;27;19915;-76
2021/04/03 09:42:16;;;;;;;16.50;6.07;;;8.90;99.70;;;;;;5133247;27;20035;-77
2021/04/03 09:44:43;;;;;;;14.25;5.22;;;9.00;99.70;;;;;;5144944;27;20110;-76
2021/04/03 09:47:09;;;;;;;19.40;5.63;;;9.10;99.30;;;;;;5140388;27;20067;-75
2021/04/03 09:49:35;;;;;;;25.13;5.60;;;9.20;98.80;;;;;;5087091;28;20066;-77
2021/04/03 09:52:02;;;;;;;21.70;6.32;;;9.20;98.70;;;;;;5096205;27;20035;-77
2021/04/03 09:54:29;;;;;;;18.33;6.28;;;9.40;98.70;;;;;;5069241;28;20399;-76
2021/04/03 09:56:54;;;;;;;18.50;6.47;;;9.50;98.50;;;;;;5107732;27;20038;-77
2021/04/03 09:59:22;;;;;;;23.58;6.05;;;9.60;98.30;;;;;;5116547;27;20464;-76
2021/04/03 10:01:48;;;;;;;23.48;6.50;;;9.50;98.00;;;;;;5133363;27;20077;-76
2021/04/03 10:04:14;;;;;;;17.23;6.10;;;9.40;98.30;;;;;;5143781;27;20679;-77
2021/04/03 10:06:40;;;;;;;21.33;6.75;;;9.40;97.90;;;;;;5101448;27;20035;-76
2021/04/03 10:09:06;;;;;;;23.27;6.55;;;9.40;97.30;;;;;;5127021;27;20106;-75
2021/04/03 10:11:33;;;;;;;18.52;5.60;;;9.60;97.60;;;;;;5105962;27;20068;-77
2021/04/03 10:13:58;;;;;;;16.83;6.45;;;9.50;96.90;;;;;;5154003;27;20057;-76
2021/04/03 10:16:30;;;;;;;17.60;5.28;;;9.50;97.00;;;;;;5117213;27;20435;-75
2021/04/03 10:18:56;;;;;;;15.23;5.65;;;9.40;96.70;;;;;;5121182;27;20119;-76
2021/04/03 10:21:23;;;;;;;19.77;5.68;;;9.30;96.90;;;;;;5095037;28;20039;-77
2021/04/03 10:23:49;;;;;;;16.38;5.45;;;9.30;97.10;;;;;;5106430;28;20027;-76
2021/04/03 10:26:15;;;;;;;18.00;4.68;;;9.10;96.40;;;;;;5094670;28;20051;-75
2021/04/03 10:28:41;;;;;;;21.30;5.63;;;9.00;96.50;;;;;;5098676;27;20039;-75
2021/04/03 10:31:07;;;;;;;22.92;5.78;;;9.10;97.00;;;;;;5130789;27;20031;-76
2021/04/03 10:33:32;;;;;;;17.25;5.88;;;9.30;96.20;;;;;;5128227;27;20050;-76
2021/04/03 10:35:58;;;;;;;15.75;5.05;;;9.30;96.60;;;;;;5126140;27;20388;-76
2021/04/03 10:38:24;;;;;;;21.55;5.95;;;9.40;96.90;;;;;;5104563;27;20092;-78
2021/04/03 10:40:50;;;;;;;18.58;4.57;;;9.50;95.90;;;;;;5152404;27;20423;-77
2021/04/03 10:43:16;;;;;;;18.70;5.80;;;9.30;95.90;;;;;;5083904;28;20040;-76
2021/04/03 10:45:42;;;;;;;17.92;5.43;;;9.20;95.90;;;;;;5096536;27;20484;-76
2021/04/03 10:48:08;;;;;;;15.60;4.75;;;9.30;96.40;;;;;;5126623;27;20118;-76
2021/04/03 10:50:33;;;;;;;18.30;4.57;;;9.40;95.90;;;;;;5120163;27;20148;-80
2021/04/03 10:52:59;;;;;;;17.23;5.75;;;9.60;95.50;;;;;;5112092;27;20642;-77
2021/04/03 10:55:25;;;;;;;21.92;5.10;;;9.70;95.00;;;;;;5111421;27;20031;-76
2021/04/03 10:57:51;;;;;;;15.18;4.80;;;9.70;94.40;;;;;;5130789;27;20418;-77
2021/04/03 11:00:17;;;;;;;13.10;5.32;;;9.60;95.00;;;;;;5124499;27;20084;-75
2021/04/03 11:02:43;;;;;;;;;;;9.50;95.10;;;;;;5124068;27;20038;-75
2021/04/03 11:05:09;;;;;;;15.05;4.38;;;9.70;95.30;;;;;;5138453;27;19915;-77
2021/04/03 11:07:35;;;;;;;17.17;5.75;;;9.80;94.70;;;;;;5102501;28;20526;-76
2021/04/03 11:10:01;;;;;;;14.32;4.95;;;9.80;94.80;;;;;;5076205;27;20054;-77
2021/04/03 11:12:27;;;;;;;16.33;5.15;;;9.80;95.00;;;;;;5107454;27;20061;-76
2021/04/03 11:14:53;;;;;;;22.35;5.45;;;9.70;94.30;;;;;;5129407;27;20764;-76
2021/04/03 11:17:18;;;;;;;16.00;4.70;;;9.70;94.30;;;;;;5113796;27;20035;-77
2021/04/03 11:19:44;;;;;;;13.85;5.15;;;9.70;94.00;;;;;;5114927;27;20054;-76
2021/04/03 11:22:10;;;;;;;17.55;5.07;;;9.80;94.00;;;;;;5135419;27;20039;-76
2021/04/03 11:24:36;;;;;;;15.43;5.70;;;9.90;93.20;;;;;;5110037;28;21613;-76
2021/04/03 11:27:02;;;;;;;10.93;4.43;;;10.00;93.00;;;;;;5128283;27;20043;-76
2021/04/03 11:29:28;;;;;;;13.70;4.70;;;10.00;92.70;;;;;;5112072;28;20035;-77
2021/04/03 11:31:54;;;;;;;15.05;4.93;;;10.00;92.40;;;;;;5119908;27;20117;-77
2021/04/03 11:34:19;;;;;;;15.80;5.00;;;9.90;91.70;;;;;;5114419;27;20222;-77
2021/04/03 11:36:45;;;;;;;17.23;4.60;;;9.90;92.30;;;;;;5118453;27;20038;-78
2021/04/03 11:39:11;;;;;;;17.02;4.70;;;10.10;92.00;;;;;;5109513;27;20039;-76
2021/04/03 11:41:37;;;;;;;16.38;4.78;;;10.30;92.10;;;;;;5101821;27;20043;-75
2021/04/03 11:44:03;;;;;;;19.50;4.50;;;10.40;91.60;;;;;;5138643;27;20123;-76
2021/04/03 11:46:29;;;;;;;18.75;4.93;;;10.30;91.30;;;;;;5130015;27;20426;-76
2021/04/03 11:48:55;;;;;;;16.85;4.50;;;10.20;91.00;;;;;;5121054;28;20034;-77
2021/04/03 11:51:21;;;;;;;15.00;4.53;;;10.30;91.20;;;;;;5131128;28;20078;-78
2021/04/03 11:53:48;;;;;;;18.33;5.18;;;10.20;90.20;;;;;;5114353;28;20047;-77
2021/04/03 11:56:14;;;;;;;14.50;4.80;;;10.20;90.30;;;;;;5126684;27;20062;-74
2021/04/03 11:58:40;;;;;;;18.88;5.97;;;10.10;90.20;;;;;;5128420;28;20468;-75
2021/04/03 12:01:06;;;;;;;15.30;4.45;;;10.00;90.20;;;;;;5079904;28;20501;-75
2021/04/03 12:03:32;;;;;;;14.85;4.95;;;10.10;90.70;;;;;;5108861;28;20031;-76
2021/04/03 12:05:58;;;;;;;14.30;5.10;;;10.10;91.30;;;;;;5112194;28;20035;-76
2021/04/03 12:08:23;;;;;;;20.63;5.03;;;10.10;90.80;;;;;;5089430;27;20067;-77
2021/04/03 12:10:50;;;;;;;19.52;5.75;;;10.10;91.00;;;;;;5119868;27;20042;-75
2021/04/03 12:13:17;;;;;;;15.23;4.90;;;10.20;91.20;;;;;;5116659;27;20043;-76
2021/04/03 12:15:43;;;;;;;;;;;10.30;90.90;;;;;;5138512;27;20023;-75
2021/04/03 12:18:09;;;;;;;11.93;5.00;;;10.30;90.30;;;;;;5098938;27;19961;-77
2021/04/03 12:20:35;;;;;;;18.15;4.78;;;10.20;90.20;;;;;;5081492;28;20540;-76
2021/04/03 12:23:01;;;;;;;17.00;5.10;;;10.20;90.40;;;;;;5103464;27;20040;-77
2021/04/03 12:25:27;;;;;;;15.40;4.90;;;10.20;88.80;;;;;;5114114;27;20060;-76
2021/04/03 12:27:53;;;;;;;16.00;4.60;;;10.20;88.10;;;;;;5125785;27;20034;-77
2021/04/03 12:30:19;;;;;;;15.68;4.75;;;10.20;87.50;;;;;;5112951;27;20040;-76
2021/04/03 12:32:45;;;;;;;12.60;4.22;;;10.10;86.80;;;;;;5134154;27;20312;-76
2021/04/03 12:35:12;;;;;;;39.13;5.70;;;9.90;86.30;;;;;;5102400;27;20050;-75
2021/04/03 12:37:38;;;;;;;13.02;3.95;;;9.80;88.20;;;;;;5135810;27;20368;-77
2021/04/03 12:40:05;;;;;;;17.90;5.03;;;10.00;89.40;;;;;;5135188;27;20043;-79
2021/04/03 12:42:33;;;;;;;13.25;4.20;;;10.00;87.30;;;;;;5142458;27;20117;-79
2021/04/03 12:44:59;;;;;;;14.05;4.68;;;10.20;85.80;;;;;;5135435;27;20110;-80
2021/04/03 12:47:25;;;;;;;16.42;4.97;;;10.10;85.00;;;;;;5135802;27;20031;-79
2021/04/03 12:49:52;;;;;;;14.00;5.00;;;10.00;85.90;;;;;;5135720;27;20479;-81
2021/04/03 12:52:17;;;;;;;23.17;4.63;;;9.90;86.50;;;;;;5134275;27;20056;-78
2021/04/03 12:54:43;;;;;;;14.10;4.07;;;10.20;84.70;;;;;;5106465;27;20133;-79